sensor_id;sensor_type;location;lat;lon;timestamp;P1;durP1;ratioP1;P2;durP2;ratioP2
3259;SDS011;68938;48.150;14.004;2023-08-01T00:01:00;5.70;;;4.83;;
3259;SDS011;68938;48.150;14.004;2023-08-01T00:03:28;5.03;;;4.63;;
3259;SDS011;68938;48.150;14.004;2023-08-01T00:05:57;4.60;;;4.30;;
3259;SDS011;68938;48.150;14.004;2023-08-01T00:08:28;5.77;;;5.20;;
3259;SDS011;68938;48.150;14.004;2023-08-01T00:10:57;7.60;;;6.07;;
3259;SDS011;68938;48.150;14.004;2023-08-01T00:13:24;4.90;;;4.57;;
3259;SDS011;68938;48.150;14.004;2023-08-01T00:15:51;5.47;;;5.10;;
3259;SDS011;68938;48.150;14.004;2023-08-01T00:18:34;5.70;;;5.27;;
3259;SDS011;68938;48.150;14.004;2023-08-01T00:21:02;6.03;;;4.80;;
3259;SDS011;68938;48.150;14.004;2023-08-01T00:23:31;5.27;;;4.60;;
3259;SDS011;68938;48.150;14.004;2023-08-01T00:26:00;4.50;;;4.30;;
3259;SDS011;68938;48.150;14.004;2023-08-01T00:28:28;5.63;;;5.23;;
3259;SDS011;68938;48.150;14.004;2023-08-01T00:31:04;5.77;;;5.27;;
3259;SDS011;68938;48.150;14.004;2023-08-01T00:33:33;5.70;;;5.20;;
3259;SDS011;68938;48.150;14.004;2023-08-01T00:36:02;5.10;;;4.53;;
3259;SDS011;68938;48.150;14.004;2023-08-01T00:38:29;4.80;;;4.40;;
3259;SDS011;68938;48.150;14.004;2023-08-01T00:40:56;5.90;;;4.80;;
3259;SDS011;68938;48.150;14.004;2023-08-01T00:43:23;4.93;;;4.53;;
3259;SDS011;68938;48.150;14.004;2023-08-01T00:45:50;5.73;;;4.63;;
3259;SDS011;68938;48.150;14.004;2023-08-01T00:48:21;5.17;;;4.73;;
3259;SDS011;68938;48.150;14.004;2023-08-01T00:50:49;5.30;;;4.33;;
3259;SDS011;68938;48.150;14.004;2023-08-01T00:53:18;4.93;;;4.43;;
3259;SDS011;68938;48.150;14.004;2023-08-01T00:55:45;4.23;;;3.93;;
3259;SDS011;68938;48.150;14.004;2023-08-01T00:58:13;4.80;;;4.47;;
3259;SDS011;68938;48.150;14.004;2023-08-01T01:00:40;4.80;;;4.43;;
3259;SDS011;68938;48.150;14.004;2023-08-01T01:03:08;4.67;;;4.27;;
3259;SDS011;68938;48.150;14.004;2023-08-01T01:05:36;4.63;;;4.27;;
3259;SDS011;68938;48.150;14.004;2023-08-01T01:08:07;6.13;;;4.13;;
3259;SDS011;68938;48.150;14.004;2023-08-01T01:10:38;4.77;;;4.37;;
3259;SDS011;68938;48.150;14.004;2023-08-01T01:13:05;5.50;;;4.77;;
3259;SDS011;68938;48.150;14.004;2023-08-01T01:15:32;4.60;;;4.30;;
3259;SDS011;68938;48.150;14.004;2023-08-01T01:17:59;4.50;;;4.10;;
3259;SDS011;68938;48.150;14.004;2023-08-01T01:20:26;4.23;;;3.83;;
3259;SDS011;68938;48.150;14.004;2023-08-01T01:23:07;4.80;;;4.50;;
3259;SDS011;68938;48.150;14.004;2023-08-01T01:25:36;4.67;;;4.23;;
3259;SDS011;68938;48.150;14.004;2023-08-01T01:28:06;5.37;;;4.97;;
3259;SDS011;68938;48.150;14.004;2023-08-01T01:30:34;4.83;;;4.43;;
3259;SDS011;68938;48.150;14.004;2023-08-01T01:33:02;5.70;;;5.20;;
3259;SDS011;68938;48.150;14.004;2023-08-01T01:35:33;5.50;;;5.00;;
3259;SDS011;68938;48.150;14.004;2023-08-01T01:38:01;5.20;;;4.70;;
3259;SDS011;68938;48.150;14.004;2023-08-01T01:40:32;5.83;;;5.33;;
3259;SDS011;68938;48.150;14.004;2023-08-01T01:43:00;6.07;;;4.90;;
3259;SDS011;68938;48.150;14.004;2023-08-01T01:45:29;5.30;;;4.67;;
3259;SDS011;68938;48.150;14.004;2023-08-01T01:47:56;4.77;;;4.47;;
3259;SDS011;68938;48.150;14.004;2023-08-01T01:50:23;10.10;;;5.63;;
3259;SDS011;68938;48.150;14.004;2023-08-01T01:52:51;5.33;;;4.73;;
3259;SDS011;68938;48.150;14.004;2023-08-01T01:55:20;4.97;;;4.60;;
3259;SDS011;68938;48.150;14.004;2023-08-01T01:57:49;5.17;;;4.40;;
3259;SDS011;68938;48.150;14.004;2023-08-01T02:00:17;4.40;;;4.10;;
3259;SDS011;68938;48.150;14.004;2023-08-01T02:02:46;4.73;;;4.30;;
3259;SDS011;68938;48.150;14.004;2023-08-01T02:05:14;5.00;;;4.70;;
3259;SDS011;68938;48.150;14.004;2023-08-01T02:07:41;5.50;;;4.40;;
3259;SDS011;68938;48.150;14.004;2023-08-01T02:10:09;4.43;;;4.13;;
3259;SDS011;68938;48.150;14.004;2023-08-01T02:12:37;4.87;;;4.30;;
3259;SDS011;68938;48.150;14.004;2023-08-01T02:15:04;6.47;;;4.60;;
3259;SDS011;68938;48.150;14.004;2023-08-01T02:17:34;9.23;;;4.60;;
3259;SDS011;68938;48.150;14.004;2023-08-01T02:20:03;5.33;;;4.80;;
3259;SDS011;68938;48.150;14.004;2023-08-01T02:22:32;6.07;;;5.53;;
3259;SDS011;68938;48.150;14.004;2023-08-01T02:24:59;4.83;;;4.47;;
3259;SDS011;68938;48.150;14.004;2023-08-01T02:27:27;4.77;;;4.33;;
3259;SDS011;68938;48.150;14.004;2023-08-01T02:29:54;4.57;;;4.27;;
3259;SDS011;68938;48.150;14.004;2023-08-01T02:32:23;4.57;;;4.27;;
3259;SDS011;68938;48.150;14.004;2023-08-01T02:34:51;5.00;;;4.60;;
3259;SDS011;68938;48.150;14.004;2023-08-01T02:37:18;5.53;;;5.13;;
3259;SDS011;68938;48.150;14.004;2023-08-01T02:39:47;5.10;;;4.60;;
3259;SDS011;68938;48.150;14.004;2023-08-01T02:42:15;5.10;;;4.70;;
3259;SDS011;68938;48.150;14.004;2023-08-01T02:44:45;6.60;;;4.40;;
3259;SDS011;68938;48.150;14.004;2023-08-01T02:47:12;4.70;;;4.30;;
3259;SDS011;68938;48.150;14.004;2023-08-01T02:49:40;4.93;;;4.60;;
3259;SDS011;68938;48.150;14.004;2023-08-01T02:52:07;5.50;;;5.00;;
3259;SDS011;68938;48.150;14.004;2023-08-01T02:54:35;6.17;;;5.57;;
3259;SDS011;68938;48.150;14.004;2023-08-01T02:57:02;5.27;;;4.77;;
3259;SDS011;68938;48.150;14.004;2023-08-01T02:59:30;5.37;;;4.90;;
3259;SDS011;68938;48.150;14.004;2023-08-01T03:01:57;5.03;;;4.53;;
3259;SDS011;68938;48.150;14.004;2023-08-01T03:04:26;5.07;;;4.70;;
3259;SDS011;68938;48.150;14.004;2023-08-01T03:07:14;5.10;;;4.67;;
3259;SDS011;68938;48.150;14.004;2023-08-01T03:09:41;5.20;;;4.10;;
3259;SDS011;68938;48.150;14.004;2023-08-01T03:12:08;5.00;;;4.20;;
3259;SDS011;68938;48.150;14.004;2023-08-01T03:14:36;4.80;;;4.50;;
3259;SDS011;68938;48.150;14.004;2023-08-01T03:17:03;4.80;;;4.10;;
3259;SDS011;68938;48.150;14.004;2023-08-01T03:19:31;4.43;;;4.13;;
3259;SDS011;68938;48.150;14.004;2023-08-01T03:21:58;5.23;;;4.73;;
3259;SDS011;68938;48.150;14.004;2023-08-01T03:24:26;5.33;;;4.93;;
3259;SDS011;68938;48.150;14.004;2023-08-01T03:26:53;7.20;;;4.67;;
3259;SDS011;68938;48.150;14.004;2023-08-01T03:29:20;5.47;;;5.00;;
3259;SDS011;68938;48.150;14.004;2023-08-01T03:31:48;4.50;;;4.20;;
3259;SDS011;68938;48.150;14.004;2023-08-01T03:34:18;5.00;;;4.50;;
3259;SDS011;68938;48.150;14.004;2023-08-01T03:36:46;6.60;;;4.50;;
3259;SDS011;68938;48.150;14.004;2023-08-01T03:39:15;4.50;;;4.20;;
3259;SDS011;68938;48.150;14.004;2023-08-01T03:41:45;4.73;;;4.33;;
3259;SDS011;68938;48.150;14.004;2023-08-01T03:44:12;4.80;;;4.40;;
3259;SDS011;68938;48.150;14.004;2023-08-01T03:46:39;4.63;;;4.33;;
3259;SDS011;68938;48.150;14.004;2023-08-01T03:49:08;4.60;;;4.20;;
3259;SDS011;68938;48.150;14.004;2023-08-01T03:51:35;5.13;;;4.70;;
3259;SDS011;68938;48.150;14.004;2023-08-01T03:54:02;4.73;;;4.33;;
3259;SDS011;68938;48.150;14.004;2023-08-01T03:56:39;5.17;;;4.70;;
3259;SDS011;68938;48.150;14.004;2023-08-01T03:59:07;5.03;;;4.63;;
3259;SDS011;68938;48.150;14.004;2023-08-01T04:01:35;5.20;;;4.80;;
3259;SDS011;68938;48.150;14.004;2023-08-01T04:04:05;4.87;;;4.57;;
3259;SDS011;68938;48.150;14.004;2023-08-01T04:06:34;8.40;;;4.70;;
3259;SDS011;68938;48.150;14.004;2023-08-01T04:09:04;8.40;;;5.33;;
3259;SDS011;68938;48.150;14.004;2023-08-01T04:11:33;5.57;;;5.07;;
3259;SDS011;68938;48.150;14.004;2023-08-01T04:14:00;5.23;;;4.83;;
3259;SDS011;68938;48.150;14.004;2023-08-01T04:16:28;5.30;;;4.40;;
3259;SDS011;68938;48.150;14.004;2023-08-01T04:18:55;4.67;;;4.37;;
3259;SDS011;68938;48.150;14.004;2023-08-01T04:21:22;4.43;;;4.13;;
3259;SDS011;68938;48.150;14.004;2023-08-01T04:23:50;5.20;;;4.77;;
3259;SDS011;68938;48.150;14.004;2023-08-01T04:26:18;6.50;;;5.60;;
3259;SDS011;68938;48.150;14.004;2023-08-01T04:28:46;6.80;;;4.63;;
3259;SDS011;68938;48.150;14.004;2023-08-01T04:31:13;4.80;;;4.40;;
3259;SDS011;68938;48.150;14.004;2023-08-01T04:33:44;5.70;;;5.30;;
3259;SDS011;68938;48.150;14.004;2023-08-01T04:36:11;5.00;;;4.63;;
3259;SDS011;68938;48.150;14.004;2023-08-01T04:38:42;5.57;;;4.53;;
3259;SDS011;68938;48.150;14.004;2023-08-01T04:41:09;5.37;;;4.87;;
3259;SDS011;68938;48.150;14.004;2023-08-01T04:43:36;4.90;;;4.50;;
3259;SDS011;68938;48.150;14.004;2023-08-01T04:46:03;5.47;;;4.93;;
3259;SDS011;68938;48.150;14.004;2023-08-01T04:48:30;5.67;;;5.10;;
3259;SDS011;68938;48.150;14.004;2023-08-01T04:51:00;5.33;;;4.90;;
3259;SDS011;68938;48.150;14.004;2023-08-01T04:53:27;5.50;;;5.00;;
3259;SDS011;68938;48.150;14.004;2023-08-01T04:55:55;4.80;;;4.37;;
3259;SDS011;68938;48.150;14.004;2023-08-01T04:58:22;5.30;;;4.80;;
3259;SDS011;68938;48.150;14.004;2023-08-01T05:00:49;6.53;;;4.83;;
3259;SDS011;68938;48.150;14.004;2023-08-01T05:03:19;4.27;;;4.00;;
3259;SDS011;68938;48.150;14.004;2023-08-01T05:05:46;4.53;;;4.23;;
3259;SDS011;68938;48.150;14.004;2023-08-01T05:08:14;4.53;;;4.03;;
3259;SDS011;68938;48.150;14.004;2023-08-01T05:10:41;4.30;;;3.90;;
3259;SDS011;68938;48.150;14.004;2023-08-01T05:13:10;4.60;;;4.30;;
3259;SDS011;68938;48.150;14.004;2023-08-01T05:15:37;5.30;;;4.20;;
3259;SDS011;68938;48.150;14.004;2023-08-01T05:18:04;4.70;;;4.30;;
3259;SDS011;68938;48.150;14.004;2023-08-01T05:20:31;4.50;;;4.20;;
3259;SDS011;68938;48.150;14.004;2023-08-01T05:22:58;5.37;;;4.77;;
3259;SDS011;68938;48.150;14.004;2023-08-01T05:25:25;4.67;;;4.20;;
3259;SDS011;68938;48.150;14.004;2023-08-01T05:27:54;4.63;;;4.33;;
3259;SDS011;68938;48.150;14.004;2023-08-01T05:30:22;4.70;;;4.30;;
3259;SDS011;68938;48.150;14.004;2023-08-01T05:32:50;5.33;;;4.57;;
3259;SDS011;68938;48.150;14.004;2023-08-01T05:35:21;5.03;;;4.63;;
3259;SDS011;68938;48.150;14.004;2023-08-01T05:37:48;5.90;;;4.03;;
3259;SDS011;68938;48.150;14.004;2023-08-01T05:40:17;4.40;;;4.00;;
3259;SDS011;68938;48.150;14.004;2023-08-01T05:42:44;4.80;;;4.40;;
3259;SDS011;68938;48.150;14.004;2023-08-01T05:45:14;4.97;;;4.53;;
3259;SDS011;68938;48.150;14.004;2023-08-01T05:47:41;4.70;;;4.40;;
3259;SDS011;68938;48.150;14.004;2023-08-01T05:50:09;4.87;;;4.37;;
3259;SDS011;68938;48.150;14.004;2023-08-01T05:52:36;5.30;;;4.67;;
3259;SDS011;68938;48.150;14.004;2023-08-01T05:55:04;4.63;;;4.33;;
3259;SDS011;68938;48.150;14.004;2023-08-01T05:57:32;3.93;;;3.67;;
3259;SDS011;68938;48.150;14.004;2023-08-01T05:59:59;4.83;;;4.43;;
3259;SDS011;68938;48.150;14.004;2023-08-01T06:02:28;5.20;;;4.80;;
3259;SDS011;68938;48.150;14.004;2023-08-01T06:04:58;5.00;;;4.60;;
3259;SDS011;68938;48.150;14.004;2023-08-01T06:07:25;5.10;;;4.70;;
3259;SDS011;68938;48.150;14.004;2023-08-01T06:09:53;4.27;;;3.97;;
3259;SDS011;68938;48.150;14.004;2023-08-01T06:12:20;7.73;;;4.53;;
3259;SDS011;68938;48.150;14.004;2023-08-01T06:14:49;8.13;;;4.70;;
3259;SDS011;68938;48.150;14.004;2023-08-01T06:17:17;4.70;;;4.30;;
3259;SDS011;68938;48.150;14.004;2023-08-01T06:19:44;6.30;;;5.70;;
3259;SDS011;68938;48.150;14.004;2023-08-01T06:22:12;5.03;;;4.67;;
3259;SDS011;68938;48.150;14.004;2023-08-01T06:24:41;4.97;;;4.57;;
3259;SDS011;68938;48.150;14.004;2023-08-01T06:27:08;5.93;;;5.33;;
3259;SDS011;68938;48.150;14.004;2023-08-01T06:29:35;5.80;;;5.17;;
3259;SDS011;68938;48.150;14.004;2023-08-01T06:32:04;5.70;;;5.20;;
3259;SDS011;68938;48.150;14.004;2023-08-01T06:34:32;5.60;;;4.33;;
3259;SDS011;68938;48.150;14.004;2023-08-01T06:36:59;4.87;;;4.43;;
3259;SDS011;68938;48.150;14.004;2023-08-01T06:39:27;7.37;;;5.07;;
3259;SDS011;68938;48.150;14.004;2023-08-01T06:41:55;4.57;;;4.13;;
3259;SDS011;68938;48.150;14.004;2023-08-01T06:44:22;6.40;;;4.93;;
3259;SDS011;68938;48.150;14.004;2023-08-01T06:46:51;5.63;;;5.20;;
3259;SDS011;68938;48.150;14.004;2023-08-01T06:49:19;5.70;;;5.20;;
3259;SDS011;68938;48.150;14.004;2023-08-01T06:51:46;6.63;;;5.90;;
3259;SDS011;68938;48.150;14.004;2023-08-01T06:54:14;5.90;;;5.20;;
3259;SDS011;68938;48.150;14.004;2023-08-01T06:56:44;5.80;;;5.30;;
3259;SDS011;68938;48.150;14.004;2023-08-01T06:59:11;6.30;;;5.43;;
3259;SDS011;68938;48.150;14.004;2023-08-01T07:01:38;6.03;;;5.53;;
3259;SDS011;68938;48.150;14.004;2023-08-01T07:04:07;6.20;;;5.40;;
3259;SDS011;68938;48.150;14.004;2023-08-01T07:06:34;6.00;;;5.43;;
3259;SDS011;68938;48.150;14.004;2023-08-01T07:09:02;5.47;;;4.87;;
3259;SDS011;68938;48.150;14.004;2023-08-01T07:11:29;5.00;;;4.60;;
3259;SDS011;68938;48.150;14.004;2023-08-01T07:13:56;8.20;;;5.03;;
3259;SDS011;68938;48.150;14.004;2023-08-01T07:16:24;6.40;;;5.80;;
3259;SDS011;68938;48.150;14.004;2023-08-01T07:18:52;5.93;;;5.43;;
3259;SDS011;68938;48.150;14.004;2023-08-01T07:21:19;7.40;;;5.17;;
3259;SDS011;68938;48.150;14.004;2023-08-01T07:23:46;5.20;;;4.80;;
3259;SDS011;68938;48.150;14.004;2023-08-01T07:26:14;5.30;;;5.00;;
3259;SDS011;68938;48.150;14.004;2023-08-01T07:28:41;5.77;;;5.27;;
3259;SDS011;68938;48.150;14.004;2023-08-01T07:31:09;6.27;;;5.60;;
3259;SDS011;68938;48.150;14.004;2023-08-01T07:33:38;6.37;;;5.70;;
3259;SDS011;68938;48.150;14.004;2023-08-01T07:36:05;5.90;;;5.33;;
3259;SDS011;68938;48.150;14.004;2023-08-01T07:38:32;6.33;;;5.57;;
3259;SDS011;68938;48.150;14.004;2023-08-01T07:41:03;6.87;;;6.10;;
3259;SDS011;68938;48.150;14.004;2023-08-01T07:43:32;6.33;;;5.70;;
3259;SDS011;68938;48.150;14.004;2023-08-01T07:46:00;6.53;;;5.93;;
3259;SDS011;68938;48.150;14.004;2023-08-01T07:48:27;5.80;;;5.30;;
3259;SDS011;68938;48.150;14.004;2023-08-01T07:50:55;5.83;;;5.43;;
3259;SDS011;68938;48.150;14.004;2023-08-01T07:53:22;9.27;;;6.77;;
3259;SDS011;68938;48.150;14.004;2023-08-01T07:55:51;6.57;;;5.87;;
3259;SDS011;68938;48.150;14.004;2023-08-01T07:58:18;6.20;;;5.60;;
3259;SDS011;68938;48.150;14.004;2023-08-01T08:00:46;8.70;;;6.47;;
3259;SDS011;68938;48.150;14.004;2023-08-01T08:03:13;6.50;;;5.97;;
3259;SDS011;68938;48.150;14.004;2023-08-01T08:05:42;5.70;;;5.30;;
3259;SDS011;68938;48.150;14.004;2023-08-01T08:08:09;8.60;;;6.30;;
3259;SDS011;68938;48.150;14.004;2023-08-01T08:10:39;6.60;;;6.00;;
3259;SDS011;68938;48.150;14.004;2023-08-01T08:13:09;5.53;;;4.97;;
3259;SDS011;68938;48.150;14.004;2023-08-01T08:15:37;5.87;;;5.27;;
3259;SDS011;68938;48.150;14.004;2023-08-01T08:18:04;5.30;;;4.90;;
3259;SDS011;68938;48.150;14.004;2023-08-01T08:20:33;8.30;;;5.20;;
3259;SDS011;68938;48.150;14.004;2023-08-01T08:23:09;7.03;;;5.90;;
3259;SDS011;68938;48.150;14.004;2023-08-01T08:25:37;6.63;;;6.03;;
3259;SDS011;68938;48.150;14.004;2023-08-01T08:28:04;6.80;;;6.07;;
3259;SDS011;68938;48.150;14.004;2023-08-01T08:30:32;6.37;;;5.80;;
3259;SDS011;68938;48.150;14.004;2023-08-01T08:33:00;5.60;;;5.20;;
3259;SDS011;68938;48.150;14.004;2023-08-01T08:35:27;5.57;;;5.07;;
3259;SDS011;68938;48.150;14.004;2023-08-01T08:37:55;6.80;;;5.50;;
3259;SDS011;68938;48.150;14.004;2023-08-01T08:40:23;6.57;;;5.13;;
3259;SDS011;68938;48.150;14.004;2023-08-01T08:42:52;5.97;;;5.30;;
3259;SDS011;68938;48.150;14.004;2023-08-01T08:45:20;4.87;;;4.57;;
3259;SDS011;68938;48.150;14.004;2023-08-01T08:47:52;5.07;;;4.67;;
3259;SDS011;68938;48.150;14.004;2023-08-01T08:50:23;6.30;;;4.90;;
3259;SDS011;68938;48.150;14.004;2023-08-01T08:52:52;5.33;;;4.83;;
3259;SDS011;68938;48.150;14.004;2023-08-01T08:55:20;6.47;;;5.40;;
3259;SDS011;68938;48.150;14.004;2023-08-01T08:57:49;5.33;;;4.83;;
3259;SDS011;68938;48.150;14.004;2023-08-01T09:00:18;5.80;;;5.30;;
3259;SDS011;68938;48.150;14.004;2023-08-01T09:02:47;5.27;;;4.87;;
3259;SDS011;68938;48.150;14.004;2023-08-01T09:05:14;6.53;;;5.80;;
3259;SDS011;68938;48.150;14.004;2023-08-01T09:07:42;6.50;;;5.23;;
3259;SDS011;68938;48.150;14.004;2023-08-01T09:10:14;5.80;;;5.00;;
3259;SDS011;68938;48.150;14.004;2023-08-01T09:12:43;5.47;;;5.00;;
3259;SDS011;68938;48.150;14.004;2023-08-01T09:15:14;5.83;;;5.43;;
3259;SDS011;68938;48.150;14.004;2023-08-01T09:17:48;9.20;;;5.63;;
3259;SDS011;68938;48.150;14.004;2023-08-01T09:20:18;5.73;;;5.20;;
3259;SDS011;68938;48.150;14.004;2023-08-01T09:22:46;5.77;;;5.20;;
3259;SDS011;68938;48.150;14.004;2023-08-01T09:25:14;5.80;;;5.30;;
3259;SDS011;68938;48.150;14.004;2023-08-01T09:27:41;6.13;;;5.63;;
3259;SDS011;68938;48.150;14.004;2023-08-01T09:30:13;5.47;;;4.97;;
3259;SDS011;68938;48.150;14.004;2023-08-01T09:32:54;5.13;;;4.73;;
3259;SDS011;68938;48.150;14.004;2023-08-01T09:35:22;5.93;;;5.50;;
3259;SDS011;68938;48.150;14.004;2023-08-01T09:37:51;6.10;;;5.47;;
3259;SDS011;68938;48.150;14.004;2023-08-01T09:40:18;6.60;;;5.67;;
3259;SDS011;68938;48.150;14.004;2023-08-01T09:42:48;6.70;;;5.20;;
3259;SDS011;68938;48.150;14.004;2023-08-01T09:45:16;6.67;;;6.07;;
3259;SDS011;68938;48.150;14.004;2023-08-01T09:47:45;6.30;;;5.77;;
3259;SDS011;68938;48.150;14.004;2023-08-01T09:50:22;5.97;;;5.27;;
3259;SDS011;68938;48.150;14.004;2023-08-01T09:52:50;7.27;;;5.37;;
3259;SDS011;68938;48.150;14.004;2023-08-01T09:55:33;11.40;;;6.23;;
3259;SDS011;68938;48.150;14.004;2023-08-01T09:58:02;11.20;;;6.63;;
3259;SDS011;68938;48.150;14.004;2023-08-01T10:00:33;6.80;;;5.60;;
3259;SDS011;68938;48.150;14.004;2023-08-01T10:03:01;7.83;;;5.97;;
3259;SDS011;68938;48.150;14.004;2023-08-01T10:05:30;7.63;;;6.60;;
3259;SDS011;68938;48.150;14.004;2023-08-01T10:08:00;6.37;;;5.87;;
3259;SDS011;68938;48.150;14.004;2023-08-01T10:10:29;6.80;;;6.10;;
3259;SDS011;68938;48.150;14.004;2023-08-01T10:12:57;6.63;;;5.97;;
3259;SDS011;68938;48.150;14.004;2023-08-01T10:15:24;8.90;;;6.67;;
3259;SDS011;68938;48.150;14.004;2023-08-01T10:17:52;7.70;;;6.40;;
3259;SDS011;68938;48.150;14.004;2023-08-01T10:20:21;6.93;;;6.30;;
3259;SDS011;68938;48.150;14.004;2023-08-01T10:22:49;5.90;;;5.30;;
3259;SDS011;68938;48.150;14.004;2023-08-01T10:25:18;4.70;;;4.40;;
3259;SDS011;68938;48.150;14.004;2023-08-01T10:28:09;6.30;;;5.57;;
3259;SDS011;68938;48.150;14.004;2023-08-01T10:30:34;6.87;;;6.17;;
3259;SDS011;68938;48.150;14.004;2023-08-01T10:33:02;7.20;;;6.07;;
3259;SDS011;68938;48.150;14.004;2023-08-01T10:35:33;5.67;;;5.07;;
3259;SDS011;68938;48.150;14.004;2023-08-01T10:38:09;5.87;;;5.37;;
3259;SDS011;68938;48.150;14.004;2023-08-01T10:40:42;6.23;;;5.63;;
3259;SDS011;68938;48.150;14.004;2023-08-01T10:43:20;6.30;;;5.80;;
3259;SDS011;68938;48.150;14.004;2023-08-01T10:46:10;6.57;;;5.97;;
3259;SDS011;68938;48.150;14.004;2023-08-01T10:48:50;6.67;;;6.07;;
3259;SDS011;68938;48.150;14.004;2023-08-01T10:51:19;10.20;;;6.37;;
3259;SDS011;68938;48.150;14.004;2023-08-01T10:53:46;6.87;;;5.50;;
3259;SDS011;68938;48.150;14.004;2023-08-01T10:56:17;5.77;;;5.27;;
3259;SDS011;68938;48.150;14.004;2023-08-01T10:58:46;7.37;;;6.40;;
3259;SDS011;68938;48.150;14.004;2023-08-01T11:01:14;7.67;;;6.33;;
3259;SDS011;68938;48.150;14.004;2023-08-01T11:03:43;6.60;;;6.00;;
3259;SDS011;68938;48.150;14.004;2023-08-01T11:06:12;6.30;;;5.80;;
3259;SDS011;68938;48.150;14.004;2023-08-01T11:08:40;6.87;;;5.57;;
3259;SDS011;68938;48.150;14.004;2023-08-01T11:11:10;6.47;;;5.87;;
3259;SDS011;68938;48.150;14.004;2023-08-01T11:13:41;6.50;;;5.90;;
3259;SDS011;68938;48.150;14.004;2023-08-01T11:16:19;9.07;;;6.50;;
3259;SDS011;68938;48.150;14.004;2023-08-01T11:18:48;7.00;;;6.30;;
3259;SDS011;68938;48.150;14.004;2023-08-01T11:21:24;5.70;;;5.20;;
3259;SDS011;68938;48.150;14.004;2023-08-01T11:23:53;6.23;;;5.60;;
3259;SDS011;68938;48.150;14.004;2023-08-01T11:26:20;7.10;;;6.50;;
3259;SDS011;68938;48.150;14.004;2023-08-01T11:28:47;6.73;;;6.10;;
3259;SDS011;68938;48.150;14.004;2023-08-01T11:31:15;6.30;;;5.70;;
3259;SDS011;68938;48.150;14.004;2023-08-01T11:33:42;7.57;;;5.70;;
3259;SDS011;68938;48.150;14.004;2023-08-01T11:36:09;5.93;;;5.40;;
3259;SDS011;68938;48.150;14.004;2023-08-01T11:38:37;6.33;;;5.47;;
3259;SDS011;68938;48.150;14.004;2023-08-01T11:41:05;5.17;;;4.60;;
3259;SDS011;68938;48.150;14.004;2023-08-01T11:43:42;5.90;;;5.40;;
3259;SDS011;68938;48.150;14.004;2023-08-01T11:46:12;5.40;;;5.00;;
3259;SDS011;68938;48.150;14.004;2023-08-01T11:48:39;4.83;;;4.50;;
3259;SDS011;68938;48.150;14.004;2023-08-01T11:51:12;5.77;;;5.10;;
3259;SDS011;68938;48.150;14.004;2023-08-01T11:53:40;5.20;;;4.80;;
3259;SDS011;68938;48.150;14.004;2023-08-01T11:56:07;5.27;;;4.80;;
3259;SDS011;68938;48.150;14.004;2023-08-01T11:58:35;4.80;;;4.50;;
3259;SDS011;68938;48.150;14.004;2023-08-01T12:01:11;5.23;;;4.83;;
3259;SDS011;68938;48.150;14.004;2023-08-01T12:03:44;5.57;;;5.10;;
3259;SDS011;68938;48.150;14.004;2023-08-01T12:06:14;7.60;;;5.10;;
3259;SDS011;68938;48.150;14.004;2023-08-01T12:08:43;4.90;;;4.33;;
3259;SDS011;68938;48.150;14.004;2023-08-01T12:11:25;5.80;;;4.60;;
3259;SDS011;68938;48.150;14.004;2023-08-01T12:14:08;4.60;;;4.30;;
3259;SDS011;68938;48.150;14.004;2023-08-01T12:16:38;4.87;;;4.47;;
3259;SDS011;68938;48.150;14.004;2023-08-01T12:19:07;6.00;;;4.83;;
3259;SDS011;68938;48.150;14.004;2023-08-01T12:21:35;5.30;;;4.80;;
3259;SDS011;68938;48.150;14.004;2023-08-01T12:24:03;5.00;;;4.60;;
3259;SDS011;68938;48.150;14.004;2023-08-01T12:26:30;4.40;;;4.10;;
3259;SDS011;68938;48.150;14.004;2023-08-01T12:28:57;5.50;;;5.00;;
3259;SDS011;68938;48.150;14.004;2023-08-01T12:31:25;4.40;;;4.00;;
3259;SDS011;68938;48.150;14.004;2023-08-01T12:33:53;6.63;;;4.47;;
3259;SDS011;68938;48.150;14.004;2023-08-01T12:36:21;6.00;;;4.23;;
3259;SDS011;68938;48.150;14.004;2023-08-01T12:38:49;6.50;;;4.93;;
3259;SDS011;68938;48.150;14.004;2023-08-01T12:41:16;5.03;;;4.63;;
3259;SDS011;68938;48.150;14.004;2023-08-01T12:43:44;4.93;;;4.53;;
3259;SDS011;68938;48.150;14.004;2023-08-01T12:46:11;4.90;;;4.57;;
3259;SDS011;68938;48.150;14.004;2023-08-01T12:48:39;5.20;;;4.80;;
3259;SDS011;68938;48.150;14.004;2023-08-01T12:51:06;5.30;;;4.80;;
3259;SDS011;68938;48.150;14.004;2023-08-01T12:53:34;5.30;;;4.80;;
3259;SDS011;68938;48.150;14.004;2023-08-01T12:56:02;4.20;;;3.90;;
3259;SDS011;68938;48.150;14.004;2023-08-01T12:58:30;5.13;;;4.50;;
3259;SDS011;68938;48.150;14.004;2023-08-01T13:00:58;4.87;;;4.57;;
3259;SDS011;68938;48.150;14.004;2023-08-01T13:03:25;5.03;;;4.53;;
3259;SDS011;68938;48.150;14.004;2023-08-01T13:05:55;4.53;;;3.93;;
3259;SDS011;68938;48.150;14.004;2023-08-01T13:08:23;4.27;;;3.97;;
3259;SDS011;68938;48.150;14.004;2023-08-01T13:10:51;5.77;;;5.27;;
3259;SDS011;68938;48.150;14.004;2023-08-01T13:13:18;4.47;;;4.17;;
3259;SDS011;68938;48.150;14.004;2023-08-01T13:15:45;6.50;;;4.40;;
3259;SDS011;68938;48.150;14.004;2023-08-01T13:18:14;4.70;;;4.40;;
3259;SDS011;68938;48.150;14.004;2023-08-01T13:20:41;8.90;;;5.40;;
3259;SDS011;68938;48.150;14.004;2023-08-01T13:23:08;6.30;;;4.90;;
3259;SDS011;68938;48.150;14.004;2023-08-01T13:25:36;5.30;;;5.00;;
3259;SDS011;68938;48.150;14.004;2023-08-01T13:28:03;4.47;;;4.07;;
3259;SDS011;68938;48.150;14.004;2023-08-01T13:30:30;7.13;;;4.90;;
3259;SDS011;68938;48.150;14.004;2023-08-01T13:32:58;6.37;;;5.50;;
3259;SDS011;68938;48.150;14.004;2023-08-01T13:35:26;6.27;;;5.67;;
3259;SDS011;68938;48.150;14.004;2023-08-01T13:37:52;6.40;;;4.57;;
3259;SDS011;68938;48.150;14.004;2023-08-01T13:40:24;6.53;;;5.93;;
3259;SDS011;68938;48.150;14.004;2023-08-01T13:42:52;5.93;;;4.70;;
3259;SDS011;68938;48.150;14.004;2023-08-01T13:45:20;5.57;;;4.73;;
3259;SDS011;68938;48.150;14.004;2023-08-01T13:47:52;5.40;;;4.90;;
3259;SDS011;68938;48.150;14.004;2023-08-01T13:50:19;5.20;;;4.70;;
3259;SDS011;68938;48.150;14.004;2023-08-01T13:52:46;5.60;;;5.00;;
3259;SDS011;68938;48.150;14.004;2023-08-01T13:55:13;6.63;;;6.00;;
3259;SDS011;68938;48.150;14.004;2023-08-01T13:57:41;5.53;;;5.00;;
3259;SDS011;68938;48.150;14.004;2023-08-01T14:00:11;6.27;;;5.77;;
3259;SDS011;68938;48.150;14.004;2023-08-01T14:02:40;5.30;;;4.90;;
3259;SDS011;68938;48.150;14.004;2023-08-01T14:05:08;5.40;;;4.90;;
3259;SDS011;68938;48.150;14.004;2023-08-01T14:07:36;5.50;;;5.13;;
3259;SDS011;68938;48.150;14.004;2023-08-01T14:10:08;5.30;;;4.80;;
3259;SDS011;68938;48.150;14.004;2023-08-01T14:12:35;6.27;;;5.77;;
3259;SDS011;68938;48.150;14.004;2023-08-01T14:15:02;5.73;;;5.33;;
3259;SDS011;68938;48.150;14.004;2023-08-01T14:17:30;5.10;;;4.60;;
3259;SDS011;68938;48.150;14.004;2023-08-01T14:19:59;5.40;;;5.10;;
3259;SDS011;68938;48.150;14.004;2023-08-01T14:22:26;4.43;;;4.10;;
3259;SDS011;68938;48.150;14.004;2023-08-01T14:24:54;4.93;;;4.53;;
3259;SDS011;68938;48.150;14.004;2023-08-01T14:27:24;4.50;;;4.10;;
3259;SDS011;68938;48.150;14.004;2023-08-01T14:29:51;4.43;;;4.07;;
3259;SDS011;68938;48.150;14.004;2023-08-01T14:32:18;5.13;;;4.63;;
3259;SDS011;68938;48.150;14.004;2023-08-01T14:34:46;4.33;;;3.93;;
3259;SDS011;68938;48.150;14.004;2023-08-01T14:37:15;4.57;;;4.17;;
3259;SDS011;68938;48.150;14.004;2023-08-01T14:39:42;4.90;;;4.30;;
3259;SDS011;68938;48.150;14.004;2023-08-01T14:42:10;6.67;;;5.03;;
3259;SDS011;68938;48.150;14.004;2023-08-01T14:44:39;5.87;;;5.37;;
3259;SDS011;68938;48.150;14.004;2023-08-01T14:47:06;4.63;;;4.23;;
3259;SDS011;68938;48.150;14.004;2023-08-01T14:49:33;4.70;;;4.30;;
3259;SDS011;68938;48.150;14.004;2023-08-01T14:52:02;4.43;;;4.13;;
3259;SDS011;68938;48.150;14.004;2023-08-01T14:54:30;5.03;;;4.27;;
3259;SDS011;68938;48.150;14.004;2023-08-01T14:57:06;4.87;;;4.47;;